Time;durP1;ratioP1;P1;durP2;ratioP2;P2;SDS_P1;SDS_P2;PMS_P1;PMS_P2;Temp;Humidity;BMP_temperature;BMP_pressure;BME280_temperature;BME280_humidity;BME280_pressure;Samples;Min_cycle;Max_cycle;Signal;HPM_P1;HPM_P2
2023/07/18 00:01:59;;;;;;;4.50;2.83;;;;;;;13.54;100.00;101192.72;7737422;23;20063;-93
2023/07/18 00:05:02;;;;;;;5.05;3.00;;;;;;;13.54;100.00;101193.53;7739018;23;20683;-94
2023/07/18 00:08:05;;;;;;;6.60;3.05;;;;;;;13.37;100.00;101190.66;7738661;23;20020;-93
2023/07/18 00:11:06;;;;;;;7.15;3.90;;;;;;;13.30;100.00;101193.72;7711469;23;20031;-93
2023/07/18 00:14:08;;;;;;;4.93;3.33;;;;;;;13.76;100.00;101194.38;7738674;23;20020;-93
2023/07/18 00:17:10;;;;;;;4.65;2.90;;;;;;;13.93;100.00;101188.63;7739114;23;20028;-94
2023/07/18 00:20:17;;;;;;;5.80;3.08;;;;;;;13.94;100.00;101181.66;7711565;23;20457;-94
2023/07/18 00:23:19;;;;;;;9.00;3.38;;;;;;;14.00;100.00;101181.13;7739417;23;20020;-93
2023/07/18 00:26:20;;;;;;;4.47;3.00;;;;;;;13.99;100.00;101182.09;7739722;23;20016;-93
2023/07/18 00:29:23;;;;;;;7.75;3.03;;;;;;;13.99;100.00;101177.72;7738599;23;20469;-94
2023/07/18 00:32:25;;;;;;;8.00;2.78;;;;;;;13.96;100.00;101172.78;7739298;23;20020;-94
2023/07/18 00:35:27;;;;;;;4.47;2.58;;;;;;;13.97;100.00;101171.81;7711955;23;20024;-94
2023/07/18 00:38:29;;;;;;;6.38;3.65;;;;;;;13.94;100.00;101168.66;7712404;23;20154;-94
2023/07/18 00:41:30;;;;;;;5.25;2.92;;;;;;;13.92;100.00;101168.75;7711946;23;20138;-94
2023/07/18 00:44:32;;;;;;;4.90;2.70;;;;;;;13.74;100.00;101171.13;7738804;23;20666;-93
2023/07/18 00:47:40;;;;;;;6.68;3.10;;;;;;;13.88;100.00;101164.75;7738473;23;20429;-93
2023/07/18 00:50:42;;;;;;;7.88;3.30;;;;;;;13.91;100.00;101159.31;7711143;23;20481;-94
2023/07/18 00:53:47;;;;;;;5.85;3.22;;;;;;;13.61;100.00;101164.41;7739194;23;20496;-94
2023/07/18 00:56:49;;;;;;;5.53;2.85;;;;;;;13.41;100.00;101164.25;7713748;23;20020;-93
2023/07/18 00:59:54;;;;;;;5.00;2.92;;;;;;;13.24;100.00;101169.94;7713640;23;20730;-93
2023/07/18 01:02:56;;;;;;;8.65;3.10;;;;;;;13.17;100.00;101172.25;7714114;23;20024;-93
2023/07/18 01:05:58;;;;;;;7.03;3.13;;;;;;;13.27;100.00;101160.19;7712590;23;20115;-94
2023/07/18 01:09:00;;;;;;;5.45;2.78;;;;;;;13.19;100.00;101162.56;7740623;23;20414;-92
2023/07/18 01:12:02;;;;;;;10.55;3.25;;;;;;;13.30;100.00;101165.13;7741770;23;20027;-93
2023/07/18 01:15:06;;;;;;;6.80;3.38;;;;;;;13.38;100.00;101163.69;7714700;23;20528;-93
2023/07/18 01:18:09;;;;;;;5.43;3.05;;;;;;;13.14;100.00;101157.72;7714231;23;20039;-93
2023/07/18 01:21:19;;;;;;;7.15;3.15;;;;;;;13.16;100.00;101154.97;7688903;23;20032;-93
2023/07/18 01:24:22;;;;;;;3.70;2.75;;;;;;;13.18;100.00;101160.06;7714659;23;20100;-93
2023/07/18 01:27:24;;;;;;;5.53;3.00;;;;;;;13.04;100.00;101163.75;7714090;23;20115;-93
2023/07/18 01:30:27;;;;;;;7.97;3.63;;;;;;;13.34;100.00;101150.09;7713988;23;20039;-93
2023/07/18 01:33:29;;;;;;;5.00;3.05;;;;;;;13.11;100.00;101144.94;7740862;23;20016;-93
2023/07/18 01:36:31;;;;;;;7.10;3.05;;;;;;;13.24;100.00;101141.34;7713218;23;20024;-93
2023/07/18 01:39:33;;;;;;;6.55;3.88;;;;;;;13.24;100.00;101136.16;7713469;23;20024;-93
2023/07/18 01:42:35;;;;;;;7.25;3.92;;;;;;;13.27;100.00;101135.97;7713110;23;20027;-94
2023/07/18 01:45:38;;;;;;;10.48;4.15;;;;;;;13.27;100.00;101139.38;7740632;23;20020;-92
2023/07/18 01:48:40;;;;;;;7.15;3.72;;;;;;;13.51;100.00;101139.16;7739934;23;20525;-92
2023/07/18 01:51:42;;;;;;;5.32;3.70;;;;;;;13.30;100.00;101133.09;7740687;23;20445;-92
2023/07/18 01:54:44;;;;;;;6.82;3.78;;;;;;;13.23;100.00;101129.31;7741101;23;20043;-93
2023/07/18 01:57:49;;;;;;;6.63;3.65;;;;;;;13.24;100.00;101130.97;7738181;23;20051;-93
2023/07/18 02:00:50;;;;;;;6.28;3.60;;;;;;;13.37;100.00;101136.06;7687144;23;20027;-92
2023/07/18 02:03:55;;;;;;;8.38;4.07;;;;;;;13.44;100.00;101138.03;7688722;23;20031;-92
2023/07/18 02:06:56;;;;;;;5.18;3.10;;;;;;;13.22;100.00;101145.88;7712082;23;20114;-92
2023/07/18 02:10:00;;;;;;;7.00;2.70;;;;;;;13.08;100.00;101140.00;7712877;23;20031;-93
2023/07/18 02:13:03;;;;;;;7.15;3.53;;;;;;;13.09;100.00;101140.81;7737251;23;20020;-92
2023/07/18 02:16:05;;;;;;;6.97;3.25;;;;;;;12.97;100.00;101152.19;7711697;23;20027;-92
2023/07/18 02:19:07;;;;;;;6.85;3.55;;;;;;;13.01;100.00;101148.41;7740407;23;20019;-93
2023/07/18 02:22:10;;;;;;;7.22;3.83;;;;;;;13.07;100.00;101148.75;7740082;23;20031;-92
2023/07/18 02:25:15;;;;;;;6.95;3.40;;;;;;;12.90;100.00;101144.88;7740534;23;20024;-92
2023/07/18 02:28:17;;;;;;;6.72;3.85;;;;;;;12.97;100.00;101145.22;7686049;23;20024;-92
2023/07/18 02:31:19;;;;;;;8.52;3.70;;;;;;;13.08;100.00;101149.56;7739711;23;20016;-93
2023/07/18 02:34:22;;;;;;;11.70;4.10;;;;;;;12.82;100.00;101156.81;7709224;23;20031;-93
2023/07/18 02:37:25;;;;;;;7.80;3.80;;;;;;;12.95;100.00;101159.28;7713261;23;20020;-92
2023/07/18 02:40:26;;;;;;;10.15;4.03;;;;;;;12.95;100.00;101164.50;7712432;23;20102;-92
2023/07/18 02:43:29;;;;;;;9.93;3.50;;;;;;;13.04;100.00;101164.59;7712477;23;20024;-92
2023/07/18 02:46:30;;;;;;;9.48;3.70;;;;;;;13.16;100.00;101167.97;7714784;23;20030;-92
2023/07/18 02:49:34;;;;;;;7.10;3.30;;;;;;;13.29;100.00;101176.50;7713942;23;20167;-93
2023/07/18 02:52:39;;;;;;;8.65;3.63;;;;;;;12.65;100.00;101182.34;7741734;23;20020;-92
2023/07/18 02:55:41;;;;;;;7.35;3.50;;;;;;;12.55;100.00;101185.78;7715659;23;20031;-92
2023/07/18 02:58:47;;;;;;;6.25;3.65;;;;;;;12.51;100.00;101195.56;7715200;23;20473;-92
2023/07/18 03:01:57;;;;;;;6.78;3.47;;;;;;;12.60;100.00;101191.44;7689874;23;20028;-92
2023/07/18 03:04:59;;;;;;;7.28;3.78;;;;;;;12.84;100.00;101197.31;7714919;23;20034;-92
2023/07/18 03:08:03;;;;;;;5.82;3.15;;;;;;;13.07;100.00;101195.53;7742317;23;20027;-92
2023/07/18 03:11:05;;;;;;;7.80;4.10;;;;;;;12.92;100.00;101194.13;7716110;23;20490;-92
2023/07/18 03:14:08;;;;;;;7.35;3.88;;;;;;;12.78;100.00;101200.41;7741641;23;20099;-92
2023/07/18 03:17:10;;;;;;;6.55;3.33;;;;;;;13.04;100.00;101193.19;7714964;23;20042;-92
2023/07/18 03:20:19;;;;;;;11.00;4.03;;;;;;;12.79;100.00;101188.22;7714883;23;20017;-92
2023/07/18 03:23:25;;;;;;;8.35;4.07;;;;;;;12.73;100.00;101186.13;7742124;23;20544;-92
2023/07/18 03:26:27;;;;;;;9.27;4.70;;;;;;;12.85;100.00;101187.75;7742610;23;20023;-92
2023/07/18 03:29:29;;;;;;;9.10;5.05;;;;;;;12.91;100.00;101187.28;7741079;23;20146;-92
2023/07/18 03:32:31;;;;;;;9.95;5.07;;;;;;;12.98;100.00;101190.22;7715428;23;20040;-92
2023/07/18 03:35:33;;;;;;;11.32;5.55;;;;;;;12.87;100.00;101188.47;7715158;23;20027;-92
2023/07/18 03:38:36;;;;;;;9.25;4.97;;;;;;;12.97;100.00;101180.75;7742218;23;20020;-92
2023/07/18 03:41:38;;;;;;;9.43;4.80;;;;;;;13.03;100.00;101175.91;7741667;23;20346;-92
2023/07/18 03:44:41;;;;;;;9.25;4.65;;;;;;;13.05;100.00;101168.00;7741661;23;20020;-92
2023/07/18 03:47:44;;;;;;;9.82;5.13;;;;;;;13.14;100.00;101175.06;7742108;23;20366;-92
2023/07/18 03:50:46;;;;;;;8.65;5.18;;;;;;;13.58;100.00;101176.72;7715624;23;20697;-92
2023/07/18 03:53:50;;;;;;;10.73;5.05;;;;;;;13.57;100.00;101169.88;7714172;23;20020;-92
2023/07/18 03:56:53;;;;;;;10.35;5.18;;;;;;;13.43;100.00;101162.38;7741122;23;20466;-92
2023/07/18 03:59:55;;;;;;;12.32;5.60;;;;;;;13.41;100.00;101168.63;7741408;23;20016;-92
2023/07/18 04:02:57;;;;;;;8.90;5.03;;;;;;;13.71;100.00;101170.53;7689803;23;20028;-92
2023/07/18 04:05:59;;;;;;;10.68;5.60;;;;;;;13.56;100.00;101160.44;7690169;23;20024;-93
2023/07/18 04:09:01;;;;;;;9.85;5.30;;;;;;;13.43;100.00;101167.56;7742544;23;20680;-92
2023/07/18 04:12:03;;;;;;;10.27;5.30;;;;;;;13.36;100.00;101166.41;7715171;23;20103;-92
2023/07/18 04:15:08;;;;;;;9.82;5.30;;;;;;;13.33;100.00;101167.47;7714610;23;20024;-93
2023/07/18 04:18:10;;;;;;;9.65;4.97;;;;;;;13.41;100.00;101171.25;7741835;23;20168;-93
2023/07/18 04:21:12;;;;;;;9.15;4.43;;;;;;;13.45;100.00;101178.69;7742081;23;20020;-93
2023/07/18 04:24:13;;;;;;;9.95;5.13;;;;;;;13.50;100.00;101178.31;7742471;23;20020;-93
2023/07/18 04:27:16;;;;;;;9.52;4.57;;;;;;;13.59;100.00;101172.38;7715366;23;20020;-93
2023/07/18 04:30:17;;;;;;;8.73;5.00;;;;;;;13.65;100.00;101168.44;7715824;23;20466;-92
2023/07/18 04:33:19;;;;;;;8.88;4.68;;;;;;;13.97;100.00;101171.00;7744307;23;20012;-92
2023/07/18 04:36:21;;;;;;;7.72;4.68;;;;;;;14.16;100.00;101165.06;7744345;23;20462;-93
2023/07/18 04:39:23;;;;;;;9.82;4.75;;;;;;;13.84;100.00;101155.56;7742639;23;20020;-93
2023/07/18 04:42:25;;;;;;;8.27;4.82;;;;;;;14.18;100.00;101157.94;7743768;23;20020;-93
2023/07/18 04:45:27;;;;;;;9.45;4.78;;;;;;;14.24;100.00;101157.44;7692153;23;20454;-92
2023/07/18 04:48:28;;;;;;;11.95;4.95;;;;;;;14.19;100.00;101154.41;7743383;23;20019;-93
2023/07/18 04:51:30;;;;;;;7.93;4.85;;;;;;;14.37;100.00;101154.63;7744300;23;20040;-93
2023/07/18 04:54:32;;;;;;;9.80;4.68;;;;;;;14.43;100.00;101147.13;7743856;23;20087;-93
2023/07/18 04:57:34;;;;;;;10.10;5.07;;;;;;;14.62;100.00;101155.97;7744151;23;20020;-94
2023/07/18 05:00:36;;;;;;;9.75;5.47;;;;;;;14.86;100.00;101151.25;7716506;23;20047;-93
2023/07/18 05:03:38;;;;;;;8.57;4.50;;;;;;;14.90;100.00;101143.97;7743280;23;20039;-93
2023/07/18 05:06:58;;;;;;;8.93;4.88;;;;;;;14.83;100.00;101142.88;7716261;23;20027;-93
2023/07/18 05:10:00;;;;;;;8.07;4.82;;;;;;;14.81;100.00;101142.19;7716988;23;20020;-93
2023/07/18 05:13:02;;;;;;;10.43;5.35;;;;;;;14.95;100.00;101151.41;7743457;23;20020;-93
2023/07/18 05:16:05;;;;;;;8.25;4.53;;;;;;;15.13;100.00;101144.59;7716968;23;20354;-94
2023/07/18 05:19:07;;;;;;;10.60;4.65;;;;;;;15.17;100.00;101147.75;7715831;23;20023;-94
2023/07/18 05:22:09;;;;;;;11.85;5.07;;;;;;;15.26;100.00;101145.13;7743738;23;20461;-93
2023/07/18 05:25:12;;;;;;;10.23;5.25;;;;;;;15.27;100.00;101146.78;7742616;23;20347;-94
2023/07/18 05:28:15;;;;;;;7.25;4.07;;;;;;;15.26;100.00;101158.19;7743515;23;20146;-93
2023/07/18 05:31:16;;;;;;;9.38;4.35;;;;;;;15.04;100.00;101161.03;7743422;23;20020;-93
2023/07/18 05:34:19;;;;;;;12.45;4.30;;;;;;;14.94;100.00;101166.22;7743101;23;20024;-94
2023/07/18 05:37:24;;;;;;;6.43;3.92;;;;;;;14.63;100.00;101165.44;7743229;23;20346;-93
2023/07/18 05:40:26;;;;;;;9.82;4.00;;;;;;;14.67;100.00;101172.03;7690139;23;20031;-93
2023/07/18 05:43:28;;;;;;;8.98;4.30;;;;;;;14.64;100.00;101177.53;7716396;23;20434;-94
2023/07/18 05:46:30;;;;;;;7.53;4.10;;;;;;;14.81;100.00;101176.91;7716471;23;20640;-94
2023/07/18 05:49:32;;;;;;;6.53;3.88;;;;;;;15.02;100.00;101178.59;7666784;23;20075;-94
2023/07/18 05:52:34;;;;;;;6.03;3.65;;;;;;;15.16;100.00;101175.59;7716398;23;20442;-93
2023/07/18 05:55:38;;;;;;;5.18;3.53;;;;;;;15.21;100.00;101165.59;7715564;23;20460;-93
2023/07/18 05:58:40;;;;;;;8.85;3.45;;;;;;;14.84;100.00;101165.38;7742688;23;20071;-93
2023/07/18 06:01:43;;;;;;;8.05;3.90;;;;;;;15.11;100.00;101171.75;7716023;23;20028;-93
2023/07/18 06:04:48;;;;;;;11.07;4.20;;;;;;;15.07;100.00;101169.41;7715632;23;20016;-94
2023/07/18 06:07:51;;;;;;;6.53;3.58;;;;;;;15.00;100.00;101175.28;7744000;23;20110;-94
2023/07/18 06:10:59;;;;;;;9.45;4.18;;;;;;;15.07;100.00;101176.41;7743190;23;20024;-94
2023/07/18 06:14:01;;;;;;;8.90;3.65;;;;;;;15.18;100.00;101171.09;7743788;23;20348;-93
2023/07/18 06:17:03;;;;;;;6.75;3.35;;;;;;;15.40;100.00;101166.56;7743174;23;20024;-93
2023/07/18 06:20:12;;;;;;;6.82;3.50;;;;;;;15.42;100.00;101175.06;7742869;23;20464;-93
2023/07/18 06:23:14;;;;;;;6.47;3.67;;;;;;;15.39;100.00;101167.53;7716092;23;20020;-93
2023/07/18 06:26:16;;;;;;;6.57;3.08;;;;;;;15.48;100.00;101167.53;7742560;23;20020;-94
2023/07/18 06:29:19;;;;;;;4.25;2.70;;;;;;;15.32;100.00;101161.19;7743105;23;20058;-92
2023/07/18 06:32:23;;;;;;;5.45;2.65;;;;;;;15.87;100.00;101158.88;7715797;23;20521;-93
2023/07/18 06:35:26;;;;;;;5.07;3.05;;;;;;;16.04;100.00;101152.09;7715663;23;20027;-93
2023/07/18 06:38:27;;;;;;;5.40;2.95;;;;;;;15.40;100.00;101162.19;7715737;23;20434;-93
2023/07/18 06:41:29;;;;;;;5.30;2.80;;;;;;;15.35;100.00;101161.75;7742492;23;20020;-93
2023/07/18 06:44:31;;;;;;;6.63;2.55;;;;;;;15.66;100.00;101167.66;7715440;23;20104;-93
2023/07/18 06:47:33;;;;;;;5.95;2.45;;;;;;;15.62;100.00;101165.47;7715635;23;20028;-93
2023/07/18 06:50:36;;;;;;;6.18;2.55;;;;;;;16.14;100.00;101153.72;7742958;23;20016;-93
2023/07/18 06:53:38;;;;;;;6.85;2.10;;;;;;;15.88;100.00;101148.28;7715132;23;20027;-92
2023/07/18 06:56:40;;;;;;;5.05;2.40;;;;;;;15.97;100.00;101149.22;7741191;23;20020;-92
2023/07/18 06:59:42;;;;;;;5.45;1.70;;;;;;;16.23;100.00;101143.41;7742243;23;20028;-92
2023/07/18 07:02:47;;;;;;;4.35;1.70;;;;;;;16.40;100.00;101150.47;7715563;23;20443;-92
2023/07/18 07:05:49;;;;;;;9.00;1.98;;;;;;;16.47;100.00;101146.34;7716014;23;20021;-93
2023/07/18 07:08:51;;;;;;;4.40;1.60;;;;;;;16.34;100.00;101138.78;7716908;23;20101;-92
2023/07/18 07:11:53;;;;;;;5.78;1.63;;;;;;;16.56;100.00;101144.63;7742754;23;20016;-93
2023/07/18 07:14:54;;;;;;;4.18;1.95;;;;;;;16.79;100.00;101139.84;7742620;23;20088;-93
2023/07/18 07:17:56;;;;;;;4.30;1.73;;;;;;;16.77;100.00;101145.22;7742310;23;20020;-93
2023/07/18 07:20:59;;;;;;;3.17;1.75;;;;;;;16.53;100.00;101135.28;7742577;23;20091;-92
2023/07/18 07:24:02;;;;;;;4.68;1.67;;;;;;;17.00;100.00;101143.03;7691323;23;20082;-92
2023/07/18 07:27:05;;;;;;;3.40;1.77;;;;;;;17.40;100.00;101139.16;7715728;23;20024;-92
2023/07/18 07:30:07;;;;;;;3.67;1.77;;;;;;;17.47;100.00;101134.13;7742811;23;20047;-92
2023/07/18 07:33:09;;;;;;;6.70;1.50;;;;;;;17.57;100.00;101134.88;7716347;23;20020;-93
2023/07/18 07:36:11;;;;;;;4.75;1.20;;;;;;;17.76;100.00;101125.16;7743003;23;20446;-92
2023/07/18 07:39:13;;;;;;;3.25;1.65;;;;;;;17.41;100.00;101124.25;7715401;23;20020;-92
2023/07/18 07:42:15;;;;;;;4.65;1.50;;;;;;;17.08;100.00;101131.81;7715310;23;20044;-93
2023/07/18 07:45:17;;;;;;;5.20;1.55;;;;;;;17.09;100.00;101125.63;7742060;23;20102;-92
2023/07/18 07:48:20;;;;;;;2.58;1.52;;;;;;;17.18;100.00;101124.72;7715849;23;20432;-93
2023/07/18 07:51:22;;;;;;;4.55;1.55;;;;;;;17.25;100.00;101124.13;7715090;23;20733;-93
2023/07/18 07:54:24;;;;;;;4.97;1.67;;;;;;;17.51;100.00;101117.13;7739198;23;20127;-93
2023/07/18 07:57:26;;;;;;;2.65;1.40;;;;;;;17.49;100.00;101115.66;7741936;23;20362;-94
2023/07/18 08:00:28;;;;;;;3.38;1.38;;;;;;;17.52;100.00;101116.19;7715341;23;20023;-95
2023/07/18 08:03:30;;;;;;;5.03;2.03;;;;;;;17.86;100.00;101108.44;7741350;23;20020;-93
2023/07/18 08:06:32;;;;;;;5.75;1.88;;;;;;;18.22;100.00;101118.78;7743417;23;20020;-94
2023/07/18 08:09:34;;;;;;;4.15;1.65;;;;;;;18.42;100.00;101118.53;7744350;23;20035;-93
2023/07/18 08:12:36;;;;;;;4.57;1.55;;;;;;;18.61;100.00;101115.66;7717824;23;20016;-93
2023/07/18 08:15:38;;;;;;;4.57;1.67;;;;;;;18.65;100.00;101110.91;7744977;23;20555;-93
2023/07/18 08:18:39;;;;;;;3.83;1.55;;;;;;;18.67;100.00;101116.81;7744272;23;20027;-93
2023/07/18 08:21:41;;;;;;;4.13;1.80;;;;;;;18.79;100.00;101120.00;7717778;23;20416;-94
2023/07/18 08:24:44;;;;;;;4.68;1.70;;;;;;;19.01;100.00;101116.75;7744492;23;20030;-94
2023/07/18 08:27:45;;;;;;;3.65;1.80;;;;;;;19.00;100.00;101112.47;7744148;23;20017;-93
2023/07/18 08:30:47;;;;;;;5.47;1.40;;;;;;;18.99;100.00;101115.28;7744026;23;20121;-93
2023/07/18 08:33:49;;;;;;;3.38;1.40;;;;;;;19.00;100.00;101107.22;7744271;23;20016;-93
2023/07/18 08:36:51;;;;;;;7.38;1.60;;;;;;;19.20;100.00;101106.91;7743401;23;20020;-93
2023/07/18 08:39:54;;;;;;;3.28;1.27;;;;;;;19.41;100.00;101103.81;7744143;23;20505;-91
2023/07/18 08:42:55;;;;;;;3.53;1.45;;;;;;;19.54;100.00;101093.63;7744047;23;20024;-95
2023/07/18 08:45:58;;;;;;;6.05;1.60;;;;;;;19.47;100.00;101092.66;7743709;23;20020;-94
2023/07/18 08:49:01;;;;;;;4.45;1.38;;;;;;;19.58;100.00;101094.94;7744485;23;20118;-94
2023/07/18 08:52:04;;;;;;;2.15;1.38;;;;;;;19.75;100.00;101090.50;7744135;23;20055;-94
2023/07/18 08:55:08;;;;;;;2.72;1.63;;;;;;;19.85;100.00;101085.91;7717430;23;20024;-94
2023/07/18 08:58:11;;;;;;;2.55;1.10;;;;;;;19.87;100.00;101081.28;7743823;23;20024;-94
2023/07/18 09:01:14;;;;;;;4.18;1.27;;;;;;;19.91;100.00;101077.31;7744842;23;20026;-93
2023/07/18 09:04:18;;;;;;;4.15;1.52;;;;;;;20.04;100.00;101075.97;7692114;23;20101;-94
2023/07/18 09:07:22;;;;;;;6.20;1.80;;;;;;;20.28;100.00;101072.44;7744040;23;20066;-94
2023/07/18 09:10:26;;;;;;;4.15;1.55;;;;;;;20.61;100.00;101075.75;7716533;23;20117;-94
2023/07/18 09:13:27;;;;;;;4.18;1.17;;;;;;;20.84;100.00;101073.13;7744193;23;20026;-94
2023/07/18 09:16:29;;;;;;;3.20;1.50;;;;;;;20.89;100.00;101072.59;7743666;23;20027;-94
2023/07/18 09:19:37;;;;;;;4.82;1.40;;;;;;;20.92;100.00;101062.56;7744101;23;20051;-94
2023/07/18 09:22:41;;;;;;;2.95;1.30;;;;;;;20.96;100.00;101063.81;7743621;23;20020;-94
2023/07/18 09:25:43;;;;;;;3.13;1.50;;;;;;;21.04;100.00;101058.50;7741648;23;20034;-94
2023/07/18 09:28:46;;;;;;;2.83;1.40;;;;;;;20.79;100.00;101047.31;7743545;23;20504;-94
2023/07/18 09:31:49;;;;;;;3.97;1.65;;;;;;;20.69;100.00;101049.38;7743892;23;20478;-94
2023/07/18 09:34:56;;;;;;;4.80;1.35;;;;;;;20.67;100.00;101046.13;7743397;23;20024;-94
2023/07/18 09:37:59;;;;;;;3.63;1.35;;;;;;;20.46;100.00;101054.59;7743505;23;20043;-94
2023/07/18 09:41:02;;;;;;;2.72;1.30;;;;;;;20.32;100.00;101053.53;7743341;23;20020;-93
2023/07/18 09:44:05;;;;;;;3.00;1.13;;;;;;;20.50;100.00;101037.47;7743186;23;20034;-95
2023/07/18 09:47:27;;;;;;;2.35;1.42;;;;;;;20.88;100.00;101044.66;7742847;23;20024;-95
2023/07/18 09:50:37;;;;;;;4.90;1.30;;;;;;;21.23;100.00;101033.50;7743170;23;20308;-94
2023/07/18 09:53:40;;;;;;;2.65;1.33;;;;;;;21.50;100.00;101036.56;7717180;23;20675;-94
2023/07/18 09:56:46;;;;;;;4.93;1.48;;;;;;;21.42;100.00;101036.66;7715968;23;20020;-95
2023/07/18 09:59:53;;;;;;;2.65;1.70;;;;;;;21.41;100.00;101038.44;7743558;23;20056;-94
2023/07/18 10:02:56;;;;;;;3.08;1.35;;;;;;;21.35;100.00;101019.91;7743040;23;20031;-95
2023/07/18 10:05:58;;;;;;;4.53;1.20;;;;;;;21.43;100.00;101018.00;7716980;23;20016;-95
2023/07/18 10:09:01;;;;;;;5.53;1.92;;;;;;;21.54;100.00;101024.69;7743276;23;20076;-94
2023/07/18 10:12:04;;;;;;;2.85;1.08;;;;;;;21.93;100.00;101015.66;7743182;23;20462;-95
2023/07/18 10:15:06;;;;;;;2.92;1.40;;;;;;;22.22;100.00;101016.63;7716480;23;20047;-95
2023/07/18 10:18:16;;;;;;;2.75;1.27;;;;;;;22.09;100.00;101012.81;7742513;23;20553;-95
2023/07/18 10:21:33;;;;;;;4.13;1.40;;;;;;;21.98;100.00;101004.56;7742803;23;20804;-94
2023/07/18 10:24:49;;;;;;;2.95;1.60;;;;;;;21.99;100.00;101007.00;7743446;23;20066;-94
2023/07/18 10:27:51;;;;;;;3.13;1.25;;;;;;;22.34;100.00;101010.69;7715424;23;20020;-96
2023/07/18 10:30:57;;;;;;;3.63;1.10;;;;;;;22.70;100.00;101006.34;7742583;23;20316;-95
2023/07/18 10:34:09;;;;;;;3.40;1.17;;;;;;;22.97;100.00;101013.53;7742747;23;20436;-95
2023/07/18 10:37:14;;;;;;;3.35;1.30;;;;;;;23.14;100.00;101005.34;7716153;23;20036;-96
2023/07/18 10:40:38;;;;;;;4.22;1.17;;;;;;;23.29;100.00;100999.94;7715299;23;20039;-95
2023/07/18 10:43:47;;;;;;;1.45;1.00;;;;;;;23.37;100.00;100989.22;7743182;23;20019;-95
2023/07/18 10:46:50;;;;;;;2.53;1.40;;;;;;;23.52;100.00;100992.56;7742847;23;20099;-94
2023/07/18 10:49:53;;;;;;;2.35;1.30;;;;;;;23.68;100.00;100983.50;7743707;23;20024;-93
2023/07/18 10:52:55;;;;;;;2.47;1.02;;;;;;;23.94;100.00;100989.94;7742754;23;20020;-94
2023/07/18 10:55:58;;;;;;;4.38;1.10;;;;;;;24.01;100.00;100980.22;7716053;23;20016;-94
2023/07/18 10:59:00;;;;;;;2.83;1.20;;;;;;;24.08;100.00;100976.56;7715843;23;20315;-95
2023/07/18 11:02:04;;;;;;;2.83;1.17;;;;;;;24.15;100.00;100970.47;7715088;23;20020;-95
2023/07/18 11:05:14;;;;;;;4.13;1.25;;;;;;;24.24;100.00;100977.22;7741826;23;20020;-95
2023/07/18 11:08:27;;;;;;;3.00;1.33;;;;;;;24.34;100.00;100975.00;7715448;23;20455;-95
2023/07/18 11:11:29;;;;;;;2.05;1.20;;;;;;;24.40;100.00;100974.19;7714099;23;20370;-95
2023/07/18 11:14:41;;;;;;;1.75;1.05;;;;;;;24.38;100.00;100980.72;7715284;23;20525;-95
2023/07/18 11:17:43;;;;;;;1.17;1.02;;;;;;;24.12;100.00;100971.69;7741668;23;20382;-95
2023/07/18 11:20:46;;;;;;;2.03;1.17;;;;;;;23.96;100.00;100980.78;7715419;23;20028;-95
2023/07/18 11:23:48;;;;;;;3.50;1.38;;;;;;;23.75;100.00;100971.16;7714659;23;20401;-96
2023/07/18 11:27:19;;;;;;;3.33;1.30;;;;;;;23.83;100.00;100973.63;7716147;23;20082;-95
2023/07/18 11:30:23;;;;;;;1.80;1.10;;;;;;;24.41;100.00;100973.16;7714257;23;20106;-94
2023/07/18 11:33:29;;;;;;;2.03;1.00;;;;;;;24.77;100.00;100964.06;7715141;23;20031;-94
2023/07/18 11:36:36;;;;;;;2.53;1.30;;;;;;;24.89;100.00;100962.44;7741540;23;20028;-94
2023/07/18 11:39:38;;;;;;;3.75;1.13;;;;;;;25.14;100.00;100956.47;7741538;23;20016;-95
2023/07/18 11:42:49;;;;;;;3.78;1.10;;;;;;;25.13;100.00;100962.81;7741297;23;20024;-94
2023/07/18 11:45:56;;;;;;;2.13;1.00;;;;;;;25.12;98.82;100954.06;7713730;23;20055;-94
2023/07/18 11:49:05;;;;;;;2.25;1.10;;;;;;;25.27;100.00;100953.03;7741255;23;20024;-96
2023/07/18 11:52:10;;;;;;;3.08;1.10;;;;;;;25.40;97.04;100954.84;7715508;23;20020;-92
2023/07/18 11:55:13;;;;;;;3.63;1.63;;;;;;;25.58;100.00;100947.81;7740548;23;20031;-94
2023/07/18 11:58:15;;;;;;;6.30;1.50;;;;;;;25.81;100.00;100945.69;7714723;23;20549;-94
2023/07/18 12:01:17;;;;;;;1.42;1.08;;;;;;;26.04;99.44;100939.88;7740718;23;20606;-95
2023/07/18 12:04:23;;;;;;;3.20;1.20;;;;;;;26.00;100.00;100935.00;7741387;23;20452;-95
2023/07/18 12:07:26;;;;;;;2.00;1.20;;;;;;;25.65;85.10;100936.38;7741247;23;20027;-95
2023/07/18 12:10:28;;;;;;;3.10;1.20;;;;;;;25.26;97.12;100933.66;7715092;23;20016;-96
2023/07/18 12:13:31;;;;;;;2.83;1.30;;;;;;;25.06;100.00;100928.38;7715165;23;20043;-96
2023/07/18 12:16:34;;;;;;;2.58;1.00;;;;;;;24.87;99.35;100921.28;7741750;23;20027;-95
2023/07/18 12:19:36;;;;;;;2.50;1.27;;;;;;;24.85;100.00;100918.03;7714419;23;20098;-96
2023/07/18 12:22:38;;;;;;;2.63;1.10;;;;;;;24.91;100.00;100914.53;7741214;23;20042;-95
2023/07/18 12:25:40;;;;;;;3.25;1.20;;;;;;;25.15;100.00;100918.38;7741232;23;20012;-95
2023/07/18 12:28:42;;;;;;;2.58;1.10;;;;;;;25.23;100.00;100907.56;7741503;23;20020;-96
2023/07/18 12:31:45;;;;;;;3.08;1.20;;;;;;;25.29;95.19;100901.47;7714284;23;20146;-95
2023/07/18 12:34:48;;;;;;;1.60;1.08;;;;;;;25.55;93.52;100903.16;7742117;23;20027;-94
2023/07/18 12:37:50;;;;;;;2.65;1.20;;;;;;;25.92;95.61;100892.00;7739560;23;20012;-95
2023/07/18 12:40:52;;;;;;;3.00;0.90;;;;;;;26.02;88.59;100881.72;7741439;23;20021;-94
2023/07/18 12:43:54;;;;;;;2.47;1.00;;;;;;;26.34;96.52;100879.84;7742047;23;20548;-95
2023/07/18 12:46:56;;;;;;;1.40;1.00;;;;;;;26.30;94.70;100868.03;7742275;23;20082;-96
2023/07/18 12:49:58;;;;;;;1.85;1.08;;;;;;;26.01;93.51;100872.13;7741664;23;20760;-96
2023/07/18 12:53:01;;;;;;;6.22;1.17;;;;;;;25.76;83.08;100859.63;7713378;23;20183;-95
2023/07/18 12:56:03;;;;;;;2.08;1.00;;;;;;;25.76;88.17;100859.63;7741867;23;20023;-95
2023/07/18 12:59:05;;;;;;;4.78;1.27;;;;;;;26.03;96.39;100850.69;7741953;23;20044;-95
2023/07/18 13:02:12;;;;;;;2.00;1.10;;;;;;;26.25;72.72;100853.81;7690964;23;20059;-95
2023/07/18 13:05:14;;;;;;;1.63;0.90;;;;;;;26.19;81.55;100847.53;7716559;23;20027;-95
2023/07/18 13:08:17;;;;;;;1.83;1.15;;;;;;;26.21;76.40;100832.22;7742027;23;20370;-95
2023/07/18 13:11:42;;;;;;;1.00;0.98;;;;;;;26.41;88.69;100827.53;7713675;23;20423;-95
2023/07/18 13:15:10;;;;;;;5.38;1.55;;;;;;;26.73;90.49;100816.81;7715312;23;20131;-95
2023/07/18 13:18:33;;;;;;;1.90;1.10;;;;;;;27.20;95.13;100818.94;7587407;23;20022;-95
2023/07/18 13:21:37;;;;;;;2.17;0.98;;;;;;;27.61;91.47;100820.03;7566109;23;20134;-94
2023/07/18 13:24:40;;;;;;;2.53;1.20;;;;;;;27.79;76.56;100808.50;7566089;23;20030;-96
2023/07/18 13:27:45;;;;;;;1.42;1.15;;;;;;;27.78;68.08;100804.25;7565314;23;20032;-95
2023/07/18 13:30:46;;;;;;;1.35;0.90;;;;;;;27.75;63.38;100807.34;7614983;23;20041;-95
2023/07/18 13:33:51;;;;;;;3.10;1.00;;;;;;;27.74;69.98;100808.38;7565994;23;20026;-95
2023/07/18 13:36:53;;;;;;;1.38;0.80;;;;;;;27.49;70.29;100817.34;7614473;23;20396;-96
2023/07/18 13:39:55;;;;;;;3.53;1.20;;;;;;;26.60;76.23;100803.66;7589933;23;20022;-96
2023/07/18 13:42:58;;;;;;;2.85;1.02;;;;;;;26.09;84.35;100805.56;7564851;23;20026;-96
2023/07/18 13:46:02;;;;;;;3.25;1.35;;;;;;;25.69;87.80;100805.81;7589004;23;20439;-95
2023/07/18 13:49:05;;;;;;;1.73;1.10;;;;;;;26.16;77.65;100808.13;7613971;23;20125;-96
2023/07/18 13:52:09;;;;;;;2.50;0.93;;;;;;;26.61;70.23;100798.16;7588694;23;20094;-95
2023/07/18 13:55:10;;;;;;;1.55;0.90;;;;;;;26.95;72.00;100795.91;7669513;23;20106;-95
2023/07/18 13:58:13;;;;;;;1.08;0.98;;;;;;;26.96;67.74;100802.06;7742309;23;20027;-95
2023/07/18 14:01:15;;;;;;;3.55;1.00;;;;;;;26.87;75.19;100804.19;7715076;23;20027;-94
2023/07/18 14:04:18;;;;;;;4.88;1.00;;;;;;;27.22;84.78;100807.06;7741196;23;20403;-96